Time;durP1;ratioP1;P1;durP2;ratioP2;P2;SDS_P1;SDS_P2;PMS_P1;PMS_P2;Temp;Humidity;BMP_temperature;BMP_pressure;BME280_temperature;BME280_humidity;BME280_pressure;Samples;Min_cycle;Max_cycle;Signal;HPM_P1;HPM_P2
2022/03/17 00:02:02;;;;;;;;;;;10.40;99.90;;;;;;5111637;28;20010;-50
2022/03/17 00:04:27;;;;;;;;;;;10.40;99.90;;;;;;5094133;28;20330;-50
2022/03/17 00:06:53;;;;;;;;;;;10.40;99.90;;;;;;5092177;28;19955;-50
2022/03/17 00:09:18;;;;;;;;;;;10.40;99.90;;;;;;5110529;28;20036;-49
2022/03/17 00:11:44;;;;;;;;;;;10.40;99.90;;;;;;5110169;28;19932;-53
2022/03/17 00:14:09;;;;;;;;;;;10.40;99.90;;;;;;5108613;28;20364;-53
2022/03/17 00:16:35;;;;;;;;;;;10.40;99.90;;;;;;5108647;28;19926;-51
2022/03/17 00:19:05;;;;;;;;;;;10.40;99.90;;;;;;5110666;28;20017;-50
2022/03/17 00:21:30;;;;;;;;;;;10.40;99.90;;;;;;5113815;28;19927;-49
2022/03/17 00:23:56;;;;;;;;;;;10.40;99.90;;;;;;5114148;28;19928;-52
2022/03/17 00:26:21;;;;;;;;;;;10.40;99.90;;;;;;5119981;28;20346;-49
2022/03/17 00:28:46;;;;;;;;;;;10.40;99.90;;;;;;5118101;28;20379;-49
2022/03/17 00:31:12;;;;;;;;;;;10.40;99.90;;;;;;5115805;28;19927;-51
2022/03/17 00:33:37;;;;;;;;;;;10.40;99.90;;;;;;5121622;28;19927;-51
2022/03/17 00:36:03;;;;;;;;;;;10.40;99.90;;;;;;5121895;28;19919;-50
2022/03/17 00:38:30;;;;;;;;;;;10.40;99.90;;;;;;5121982;28;19926;-50
2022/03/17 00:40:56;;;;;;;;;;;10.40;99.90;;;;;;5124068;28;19965;-49
2022/03/17 00:43:22;;;;;;;;;;;10.40;99.90;;;;;;5114449;27;20381;-49
2022/03/17 00:45:48;;;;;;;;;;;10.40;99.90;;;;;;5122221;27;19926;-50
2022/03/17 00:48:13;;;;;;;;;;;10.40;99.90;;;;;;5119448;27;19927;-50
2022/03/17 00:50:39;;;;;;;;;;;10.30;99.90;;;;;;5112368;27;20273;-51
2022/03/17 00:53:05;;;;;;;;;;;10.30;99.90;;;;;;5114141;27;19920;-49
2022/03/17 00:55:30;;;;;;;;;;;10.30;99.90;;;;;;5100132;28;19920;-49
2022/03/17 00:57:56;;;;;;;;;;;10.30;99.90;;;;;;5094601;28;20058;-50
2022/03/17 01:00:22;;;;;;;;;;;10.30;99.90;;;;;;5101647;28;19955;-51
2022/03/17 01:02:49;;;;;;;;;;;10.30;99.90;;;;;;5087598;28;20342;-50
2022/03/17 01:05:15;;;;;;;;;;;10.30;99.90;;;;;;5105493;28;19961;-49
2022/03/17 01:07:41;;;;;;;;;;;10.30;99.90;;;;;;5103305;28;20305;-49
2022/03/17 01:10:08;;;;;;;;;;;10.30;99.90;;;;;;5091446;28;19931;-51
2022/03/17 01:12:34;;;;;;;;;;;10.30;99.90;;;;;;5103128;28;19965;-49
2022/03/17 01:15:00;;;;;;;;;;;10.30;99.90;;;;;;5097222;28;19920;-50
2022/03/17 01:17:26;;;;;;;;;;;10.30;99.90;;;;;;5093365;28;22037;-51
2022/03/17 01:19:52;;;;;;;;;;;10.30;99.90;;;;;;5100277;28;19970;-52
2022/03/17 01:22:17;;;;;;;;;;;10.30;99.90;;;;;;5097931;28;19971;-49
2022/03/17 01:24:43;;;;;;;;;;;10.40;99.90;;;;;;5093334;28;19924;-49
2022/03/17 01:27:09;;;;;;;;;;;10.40;99.90;;;;;;5092173;28;20398;-50
2022/03/17 01:29:34;;;;;;;;;;;10.40;99.90;;;;;;5092479;28;19927;-51
2022/03/17 01:32:00;;;;;;;;;;;10.40;99.90;;;;;;5091386;28;20385;-49
2022/03/17 01:34:25;;;;;;;;;;;10.40;99.90;;;;;;5090825;28;20550;-50
2022/03/17 01:36:51;;;;;;;;;;;10.40;99.90;;;;;;5094699;28;19920;-49
2022/03/17 01:39:16;;;;;;;;;;;10.40;99.90;;;;;;5102488;28;19919;-49
2022/03/17 01:41:42;;;;;;;;;;;10.40;99.90;;;;;;5107612;28;19927;-50
2022/03/17 01:44:07;;;;;;;;;;;10.40;99.90;;;;;;5102275;28;19920;-51
2022/03/17 01:49:17;;;;;;;;;;;10.30;99.90;;;;;;5096622;28;19988;-49
2022/03/17 01:51:45;;;;;;;;;;;10.30;99.90;;;;;;5096909;28;20362;-53
2022/03/17 01:54:10;;;;;;;;;;;10.30;99.90;;;;;;5094899;28;20300;-49
2022/03/17 01:56:37;;;;;;;;;;;10.30;99.90;;;;;;5089828;28;19939;-48
2022/03/17 01:59:02;;;;;;;;;;;10.20;99.90;;;;;;5093868;28;19920;-48
2022/03/17 02:01:27;;;;;;;;;;;10.20;99.90;;;;;;5091436;28;20460;-49
2022/03/17 02:03:54;;;;;;;;;;;10.20;99.90;;;;;;5091989;28;20015;-49
2022/03/17 02:06:20;;;;;;;;;;;10.10;99.90;;;;;;5092264;28;19920;-49
2022/03/17 02:08:45;;;;;;;;;;;10.10;99.90;;;;;;5094760;28;19943;-49
2022/03/17 02:13:55;;;;;;;;;;;10.10;99.90;;;;;;5093933;28;20012;-49
2022/03/17 02:16:20;;;;;;;;;;;10.00;99.90;;;;;;5097507;28;19972;-50
2022/03/17 02:18:46;;;;;;;;;;;10.00;99.90;;;;;;5093606;28;19931;-49
2022/03/17 02:21:12;;;;;;;;;;;10.00;99.90;;;;;;5096495;28;20734;-50
2022/03/17 02:26:21;;;;;;;;;;;10.00;99.90;;;;;;5097813;28;20359;-50
2022/03/17 02:28:47;;;;;;;;;;;10.00;99.90;;;;;;5098831;28;19973;-50
2022/03/17 02:31:12;;;;;;;;;;;10.00;99.90;;;;;;5099472;28;21148;-48
2022/03/17 02:33:40;;;;;;;;;;;10.00;99.90;;;;;;5100324;28;19927;-49
2022/03/17 02:36:08;;;;;;;;;;;10.10;99.90;;;;;;5102564;28;19920;-50
2022/03/17 02:38:33;;;;;;;;;;;10.10;99.90;;;;;;5097780;28;19977;-50
2022/03/17 02:40:59;;;;;;;;;;;10.10;99.90;;;;;;5063366;28;19986;-51
2022/03/17 02:43:25;;;;;;;;;;;10.10;99.90;;;;;;5099508;28;19927;-50
2022/03/17 02:45:50;;;;;;;;;;;10.10;99.90;;;;;;5104770;28;19942;-49
2022/03/17 02:48:19;;;;;;;;;;;10.10;99.90;;;;;;5099308;28;20323;-51
2022/03/17 02:50:45;;;;;;;;;;;10.10;99.90;;;;;;5108714;22;19928;-76
2022/03/17 02:53:11;;;;;;;;;;;10.00;99.90;;;;;;5047404;28;19962;-76
2022/03/17 02:55:38;;;;;;;;;;;10.10;99.90;;;;;;5069968;28;19920;-75
2022/03/17 02:58:04;;;;;;;;;;;10.00;99.90;;;;;;5066059;28;19920;-76
2022/03/17 03:00:30;;;;;;;;;;;10.10;99.90;;;;;;5070879;28;21414;-75
2022/03/17 03:02:55;;;;;;;;;;;10.10;99.90;;;;;;5050962;28;19967;-74
2022/03/17 03:05:22;;;;;;;;;;;10.10;99.90;;;;;;5067296;28;20363;-71
2022/03/17 03:07:48;;;;;;;;;;;10.10;99.90;;;;;;5069391;28;19967;-71
2022/03/17 03:10:13;;;;;;;;;;;10.10;99.90;;;;;;5050131;28;19971;-71
2022/03/17 03:12:40;;;;;;;;;;;10.10;99.90;;;;;;5049519;28;20713;-72
2022/03/17 03:15:06;;;;;;;;;;;10.30;99.90;;;;;;5069190;28;19928;-71
2022/03/17 03:17:32;;;;;;;;;;;10.20;99.90;;;;;;5047350;28;19920;-71
2022/03/17 03:19:58;;;;;;;;;;;10.20;99.90;;;;;;5068872;28;20363;-71
2022/03/17 03:22:28;;;;;;;;;;;10.10;99.90;;;;;;5068661;28;19920;-70
2022/03/17 03:24:54;;;;;;;;;;;10.20;99.90;;;;;;5048358;28;19926;-71
2022/03/17 03:27:20;;;;;;;;;;;10.20;99.90;;;;;;5068128;28;19920;-71
2022/03/17 03:29:46;;;;;;;;;;;10.10;99.90;;;;;;5071345;28;20379;-71
2022/03/17 03:32:12;;;;;;;;;;;10.20;99.90;;;;;;5069633;28;19921;-72
2022/03/17 03:34:37;;;;;;;;;;;10.20;99.90;;;;;;5070277;28;19973;-70
2022/03/17 03:39:48;;;;;;;;;;;10.20;99.90;;;;;;5070109;28;20428;-70
2022/03/17 03:42:14;;;;;;;;;;;10.20;99.90;;;;;;5067697;28;19964;-70
2022/03/17 03:44:39;;;;;;;;;;;10.40;99.90;;;;;;5067178;28;19928;-72
2022/03/17 03:47:05;;;;;;;;;;;10.40;99.90;;;;;;5052175;28;19921;-74
2022/03/17 03:49:31;;;;;;;;;;;10.50;99.90;;;;;;5060257;28;19958;-72
2022/03/17 03:51:57;;;;;;;;;;;10.50;99.90;;;;;;5059392;28;20652;-73
2022/03/17 03:54:22;;;;;;;;;;;10.50;99.90;;;;;;5054845;28;19920;-73
2022/03/17 03:56:55;;;;;;;;;;;10.50;99.90;;;;;;5057702;28;19935;-73
2022/03/17 03:59:22;;;;;;;;;;;10.60;99.90;;;;;;5056205;28;19929;-72
2022/03/17 04:01:48;;;;;;;;;;;10.50;99.90;;;;;;5056291;28;20007;-72
2022/03/17 04:04:17;;;;;;;;;;;10.60;99.90;;;;;;5064740;28;19922;-74
2022/03/17 04:06:46;;;;;;;;;;;10.70;99.90;;;;;;5067448;28;19921;-74
2022/03/17 04:09:16;;;;;;;;;;;10.70;99.90;;;;;;5060663;28;19966;-73
2022/03/17 04:11:42;;;;;;;;;;;10.70;99.90;;;;;;5032783;28;20061;-74
2022/03/17 04:14:08;;;;;;;;;;;10.80;99.90;;;;;;5067358;28;20000;-74
2022/03/17 04:16:34;;;;;;;;;;;10.90;99.90;;;;;;5043381;28;19921;-75
2022/03/17 04:18:59;;;;;;;;;;;10.80;99.90;;;;;;5038462;28;21172;-74
2022/03/17 04:21:25;;;;;;;;;;;10.70;99.90;;;;;;5059347;28;19964;-72
2022/03/17 04:23:50;;;;;;;;;;;10.70;99.90;;;;;;5030771;28;20301;-72
2022/03/17 04:26:16;;;;;;;;;;;10.70;99.90;;;;;;5058137;28;19942;-74
2022/03/17 04:28:42;;;;;;;;;;;10.80;99.90;;;;;;5041858;28;20074;-71
2022/03/17 04:31:07;;;;;;;;;;;10.80;99.90;;;;;;5067940;28;19928;-74
2022/03/17 04:33:33;;;;;;;;;;;10.80;99.90;;;;;;5048673;28;19943;-73
2022/03/17 04:35:58;;;;;;;;;;;10.80;99.90;;;;;;5059151;28;19939;-73
2022/03/17 04:38:25;;;;;;;;;;;11.00;99.90;;;;;;5068996;28;20091;-74
2022/03/17 04:40:50;;;;;;;;;;;10.80;99.90;;;;;;5064654;28;20000;-74
2022/03/17 04:43:19;;;;;;;;;;;10.80;99.90;;;;;;5061634;28;20354;-73
2022/03/17 04:45:46;;;;;;;;;;;10.80;99.90;;;;;;5049891;28;19920;-73
2022/03/17 04:48:12;;;;;;;;;;;10.70;99.90;;;;;;5048748;28;20333;-73
2022/03/17 04:50:37;;;;;;;;;;;10.70;99.90;;;;;;5062809;28;19920;-73
2022/03/17 04:55:47;;;;;;;;;;;10.60;99.90;;;;;;5063223;28;19971;-73
2022/03/17 04:58:13;;;;;;;;;;;10.50;99.90;;;;;;5060037;28;20017;-73
2022/03/17 05:00:40;;;;;;;;;;;10.40;99.90;;;;;;5058744;28;19920;-73
2022/03/17 05:03:05;;;;;;;;;;;10.30;99.90;;;;;;5048138;28;20011;-72
2022/03/17 05:05:30;;;;;;;;;;;10.50;99.90;;;;;;5065524;28;20007;-71
2022/03/17 05:07:57;;;;;;;;;;;10.20;99.90;;;;;;5067754;28;19921;-71
2022/03/17 05:10:23;;;;;;;;;;;10.20;99.90;;;;;;5062597;28;20394;-70
2022/03/17 05:12:48;;;;;;;;;;;10.10;99.90;;;;;;5067241;28;19922;-71
2022/03/17 05:15:14;;;;;;;;;;;10.10;99.90;;;;;;5065584;28;19971;-71
2022/03/17 05:17:40;;;;;;;;;;;10.10;99.90;;;;;;5064405;28;19982;-72
2022/03/17 05:20:14;;;;;;;;;;;10.00;99.90;;;;;;5062070;28;19920;-71
2022/03/17 05:22:41;;;;;;;;;;;10.00;99.90;;;;;;5064465;28;20058;-72
2022/03/17 05:25:08;;;;;;;;;;;10.00;99.90;;;;;;5030016;28;20290;-72
2022/03/17 05:27:40;;;;;;;;;;;9.90;99.90;;;;;;5038643;28;19920;-73
2022/03/17 05:30:06;;;;;;;;;;;9.90;99.90;;;;;;5059444;28;20273;-72
2022/03/17 05:32:32;;;;;;;;;;;9.80;99.90;;;;;;5059221;28;19959;-72
2022/03/17 05:34:57;;;;;;;;;;;9.70;99.90;;;;;;5057187;28;20297;-73
2022/03/17 05:37:23;;;;;;;;;;;9.50;99.90;;;;;;5058045;28;19920;-72
2022/03/17 05:39:49;;;;;;;;;;;9.30;99.90;;;;;;5059655;28;20386;-71
2022/03/17 05:42:15;;;;;;;;;;;9.20;99.90;;;;;;5040742;28;19929;-72
2022/03/17 05:44:40;;;;;;;;;;;9.10;99.90;;;;;;5045162;28;19931;-73
2022/03/17 05:47:06;;;;;;;;;;;9.00;99.90;;;;;;5057167;28;20400;-73
2022/03/17 05:49:31;;;;;;;;;;;8.90;99.90;;;;;;5040230;28;19939;-72
2022/03/17 05:51:57;;;;;;;;;;;8.90;99.90;;;;;;5057361;28;19920;-72
2022/03/17 05:54:22;;;;;;;;;;;8.70;99.90;;;;;;5038082;28;20289;-72
2022/03/17 05:56:48;;;;;;;;;;;8.70;99.90;;;;;;5057121;28;19942;-72
2022/03/17 05:59:13;;;;;;;;;;;8.60;99.90;;;;;;5058763;28;20355;-73
2022/03/17 06:01:39;;;;;;;;;;;8.50;99.90;;;;;;5056209;28;20003;-72
2022/03/17 06:04:04;;;;;;;;;;;8.60;99.90;;;;;;5042855;28;19928;-71
2022/03/17 06:06:30;;;;;;;;;;;8.50;99.90;;;;;;5069155;28;19936;-71
2022/03/17 06:08:55;;;;;;;;;;;8.40;99.90;;;;;;5063724;28;19978;-70
2022/03/17 06:11:21;;;;;;;;;;;8.40;99.90;;;;;;5073469;28;20015;-72
2022/03/17 06:13:47;;;;;;;;;;;8.60;99.90;;;;;;5063079;28;20456;-72
2022/03/17 06:16:13;;;;;;;;;;;8.30;99.90;;;;;;5046026;28;19958;-71
2022/03/17 06:18:40;;;;;;;;;;;8.40;99.90;;;;;;5062478;28;19928;-73
2022/03/17 06:21:05;;;;;;;;;;;8.30;99.90;;;;;;5054362;28;20065;-72
2022/03/17 06:23:31;;;;;;;;;;;8.30;99.90;;;;;;5065579;28;19977;-72
2022/03/17 06:25:57;;;;;;;;;;;8.30;99.90;;;;;;5064624;28;19935;-72
2022/03/17 06:28:22;;;;;;;;;;;8.30;99.90;;;;;;5054379;28;20323;-72
2022/03/17 06:30:48;;;;;;;;;;;8.20;99.90;;;;;;5061888;28;19928;-71
2022/03/17 06:33:14;;;;;;;;;;;8.20;99.90;;;;;;5057794;28;19931;-71
2022/03/17 06:35:39;;;;;;;;;;;8.20;99.90;;;;;;5061567;28;19920;-71
2022/03/17 06:38:06;;;;;;;;;;;8.20;99.90;;;;;;5060416;28;19929;-72
2022/03/17 06:40:32;;;;;;;;;;;8.20;99.90;;;;;;5064533;28;20011;-71
2022/03/17 06:42:58;;;;;;;;;;;8.20;99.90;;;;;;5057792;28;19931;-71
2022/03/17 06:45:24;;;;;;;;;;;8.20;99.90;;;;;;5026700;28;19920;-69
2022/03/17 06:47:50;;;;;;;;;;;8.20;99.90;;;;;;5047078;28;19936;-69
2022/03/17 06:50:16;;;;;;;;;;;8.20;99.90;;;;;;5045574;28;19956;-69
2022/03/17 06:52:42;;;;;;;;;;;8.20;99.90;;;;;;5065191;28;19970;-69
2022/03/17 06:55:08;;;;;;;;;;;8.20;99.90;;;;;;5061224;28;20595;-69
2022/03/17 06:57:33;;;;;;;;;;;8.20;99.90;;;;;;5038013;28;20241;-68
2022/03/17 07:00:01;;;;;;;;;;;8.10;99.90;;;;;;5045694;28;19982;-69
2022/03/17 07:02:26;;;;;;;;;;;8.10;99.90;;;;;;5052799;28;19928;-69
2022/03/17 07:04:52;;;;;;;;;;;8.10;99.90;;;;;;5045571;28;19921;-72
2022/03/17 07:07:17;;;;;;;;;;;8.10;99.90;;;;;;5057544;28;19975;-72
2022/03/17 07:09:42;;;;;;;;;;;8.10;99.90;;;;;;5040527;28;19924;-72
2022/03/17 07:12:10;;;;;;;;;;;8.10;99.90;;;;;;5060233;28;20291;-71
2022/03/17 07:14:35;;;;;;;;;;;8.10;99.90;;;;;;5062267;28;19920;-71
2022/03/17 07:17:00;;;;;;;;;;;8.00;99.90;;;;;;5057023;28;20489;-70
2022/03/17 07:19:26;;;;;;;;;;;8.00;99.90;;;;;;5066022;28;19946;-71
2022/03/17 07:21:53;;;;;;;;;;;8.10;99.90;;;;;;5063401;28;19928;-70
2022/03/17 07:24:19;;;;;;;;;;;8.10;99.90;;;;;;5062857;28;20019;-70
2022/03/17 07:26:44;;;;;;;;;;;8.10;99.90;;;;;;5057178;28;20510;-71
2022/03/17 07:29:10;;;;;;;;;;;8.10;99.90;;;;;;5067306;28;19931;-71
2022/03/17 07:31:35;;;;;;;;;;;8.20;99.90;;;;;;5055801;28;20062;-72
2022/03/17 07:34:01;;;;;;;;;;;8.20;99.90;;;;;;5014434;28;19975;-72
2022/03/17 07:36:27;;;;;;;;;;;8.20;99.90;;;;;;5063455;28;20016;-71
2022/03/17 07:38:56;;;;;;;;;;;8.10;99.90;;;;;;5061796;28;19921;-71
2022/03/17 07:41:22;;;;;;;;;;;8.10;99.90;;;;;;5053326;28;19927;-71
2022/03/17 07:43:47;;;;;;;;;;;8.10;99.90;;;;;;5050470;28;19921;-74
2022/03/17 07:46:13;;;;;;;;;;;8.20;99.90;;;;;;5039494;28;20417;-74
2022/03/17 07:48:39;;;;;;;;;;;8.20;99.90;;;;;;5063444;28;19925;-74
2022/03/17 07:51:04;;;;;;;;;;;8.20;99.90;;;;;;5061243;28;19931;-76
2022/03/17 07:53:30;;;;;;;;;;;8.30;99.90;;;;;;5060180;28;19920;-75
2022/03/17 07:55:55;;;;;;;;;;;8.30;99.90;;;;;;5065716;28;19998;-75
2022/03/17 07:58:24;;;;;;;;;;;8.30;99.90;;;;;;5052326;28;20372;-74
2022/03/17 08:00:53;;;;;;;;;;;8.40;99.90;;;;;;5053854;28;20391;-75
2022/03/17 08:03:20;;;;;;;;;;;8.30;99.90;;;;;;5039976;28;19927;-74
2022/03/17 08:05:48;;;;;;;;;;;8.30;99.90;;;;;;5062119;28;19920;-74
2022/03/17 08:08:14;;;;;;;;;;;8.30;99.90;;;;;;5041195;28;22155;-74
2022/03/17 08:10:39;;;;;;;;;;;8.20;99.90;;;;;;5055828;28;19968;-74
2022/03/17 08:13:06;;;;;;;;;;;8.30;99.90;;;;;;5055628;28;19966;-74
2022/03/17 08:15:31;;;;;;;;;;;8.30;99.90;;;;;;5057988;28;19931;-72
2022/03/17 08:17:57;;;;;;;;;;;8.30;99.90;;;;;;5035096;28;19920;-72
2022/03/17 08:20:22;;;;;;;;;;;8.30;99.90;;;;;;5062605;28;19943;-75
2022/03/17 08:22:49;;;;;;;;;;;8.30;99.90;;;;;;5065342;28;20260;-75
2022/03/17 08:25:17;;;;;;;;;;;8.30;99.90;;;;;;5063782;28;19987;-75
2022/03/17 08:27:42;;;;;;;;;;;8.20;99.90;;;;;;5062915;28;20015;-77
2022/03/17 08:30:08;;;;;;;;;;;8.20;99.90;;;;;;5057812;28;20039;-76
2022/03/17 08:32:34;;;;;;;;;;;8.10;99.90;;;;;;5061318;28;19920;-75
2022/03/17 08:34:59;;;;;;;;;;;8.10;99.90;;;;;;5059746;28;19931;-75
2022/03/17 08:37:25;;;;;;;;;;;8.10;99.90;;;;;;5058348;28;19925;-75
2022/03/17 08:39:51;;;;;;;;;;;8.10;99.90;;;;;;5061283;28;19972;-74
2022/03/17 08:42:16;;;;;;;;;;;8.20;99.90;;;;;;5066787;28;19989;-74
2022/03/17 08:44:42;;;;;;;;;;;8.10;99.90;;;;;;5053379;28;20007;-75
2022/03/17 08:49:51;;;;;;;;;;;8.10;99.90;;;;;;5042881;28;19936;-74
2022/03/17 08:52:19;;;;;;;;;;;8.20;99.90;;;;;;5053932;28;19921;-75
2022/03/17 08:54:45;;;;;;;;;;;8.20;99.90;;;;;;5047699;28;20555;-75
2022/03/17 08:57:12;;;;;;;;;;;8.20;99.90;;;;;;5048647;28;20360;-74
2022/03/17 08:59:38;;;;;;;;;;;8.20;99.90;;;;;;5064287;28;19928;-73
2022/03/17 09:02:06;;;;;;;;;;;8.20;99.90;;;;;;5057597;28;19978;-74
2022/03/17 09:04:32;;;;;;;;;;;8.20;99.90;;;;;;5061960;28;19925;-75
2022/03/17 09:07:00;;;;;;;;;;;8.20;99.90;;;;;;5059401;28;19974;-74
2022/03/17 09:09:29;;;;;;;;;;;8.20;99.90;;;;;;5062232;28;20386;-73
2022/03/17 09:11:55;;;;;;;;;;;8.20;99.90;;;;;;5056666;28;20307;-74
2022/03/17 09:14:21;;;;;;;;;;;8.20;99.90;;;;;;5062229;28;19928;-75
2022/03/17 09:16:47;;;;;;;;;;;8.20;99.90;;;;;;5070551;28;19928;-74
2022/03/17 09:19:12;;;;;;;;;;;8.20;99.90;;;;;;5043497;28;19920;-75
2022/03/17 09:21:38;;;;;;;;;;;8.20;99.90;;;;;;5038221;28;19920;-75
2022/03/17 09:24:03;;;;;;;;;;;8.20;99.90;;;;;;5072193;28;19963;-75
2022/03/17 09:26:29;;;;;;;;;;;8.60;99.90;;;;;;5073018;28;20007;-74
2022/03/17 09:28:55;;;;;;;;;;;8.30;99.90;;;;;;5039484;28;19928;-74
2022/03/17 09:31:22;;;;;;;;;;;8.30;99.90;;;;;;5042794;28;20302;-74
2022/03/17 09:33:48;;;;;;;;;;;8.40;99.90;;;;;;5050178;28;20406;-74
2022/03/17 09:36:13;;;;;;;;;;;8.60;99.90;;;;;;5067775;28;19921;-74
2022/03/17 09:38:39;;;;;;;;;;;8.80;99.90;;;;;;5054420;28;20366;-75
2022/03/17 09:41:23;;;;;;;;;;;8.90;99.90;;;;;;5059436;28;19920;-73
2022/03/17 09:43:49;;;;;;;;;;;9.00;99.90;;;;;;5066425;28;19947;-76
2022/03/17 09:46:16;;;;;;;;;;;9.20;99.90;;;;;;5062418;28;19971;-75
2022/03/17 09:48:42;;;;;;;;;;;9.30;99.90;;;;;;5054324;28;19929;-75
2022/03/17 09:51:08;;;;;;;;;;;9.20;99.90;;;;;;5055024;28;20003;-75
2022/03/17 09:53:33;;;;;;;;;;;9.30;99.90;;;;;;5060812;28;19963;-75
2022/03/17 09:55:59;;;;;;;;;;;9.40;99.90;;;;;;5061923;28;20387;-75
2022/03/17 09:58:24;;;;;;;;;;;9.20;99.90;;;;;;5050163;28;19927;-75
2022/03/17 10:00:52;;;;;;;;;;;9.20;99.90;;;;;;5054980;28;19928;-75
2022/03/17 10:03:18;;;;;;;;;;;9.10;99.90;;;;;;5038084;28;20287;-75
2022/03/17 10:05:45;;;;;;;;;;;9.20;99.90;;;;;;5061097;28;20335;-75
2022/03/17 10:08:10;;;;;;;;;;;9.00;99.90;;;;;;5062514;28;20256;-75
2022/03/17 10:10:39;;;;;;;;;;;9.20;99.90;;;;;;5065869;28;19932;-75
2022/03/17 10:13:05;;;;;;;;;;;9.10;99.90;;;;;;5063779;28;19921;-75
2022/03/17 10:15:31;;;;;;;;;;;9.10;99.90;;;;;;5058490;28;20469;-75
2022/03/17 10:17:56;;;;;;;;;;;9.10;99.90;;;;;;5037729;28;20008;-75
2022/03/17 10:20:24;;;;;;;;;;;9.00;99.90;;;;;;5062619;28;19948;-75
2022/03/17 10:22:54;;;;;;;;;;;9.10;99.90;;;;;;5060248;28;19956;-75
2022/03/17 10:25:20;;;;;;;;;;;9.20;99.90;;;;;;5066858;28;19926;-75
2022/03/17 10:27:49;;;;;;;;;;;9.20;99.90;;;;;;5061950;28;20000;-75
2022/03/17 10:30:22;;;;;;;;;;;9.20;99.90;;;;;;5053978;28;19974;-75
2022/03/17 10:32:55;;;;;;;;;;;9.30;99.90;;;;;;5053354;28;20383;-75
2022/03/17 10:35:34;;;;;;;;;;;9.20;99.90;;;;;;5057614;28;20016;-75
2022/03/17 10:38:09;;;;;;;;;;;9.40;99.90;;;;;;5038139;28;20027;-75
2022/03/17 10:40:35;;;;;;;;;;;9.50;99.90;;;;;;5061123;28;19920;-75
2022/03/17 10:43:14;;;;;;;;;;;9.50;99.90;;;;;;5048078;28;19924;-74
2022/03/17 10:45:39;;;;;;;;;;;9.70;99.90;;;;;;5073612;28;19924;-74
2022/03/17 10:48:06;;;;;;;;;;;9.80;99.90;;;;;;5073397;28;20379;-75
2022/03/17 10:50:37;;;;;;;;;;;9.90;99.90;;;;;;5072483;28;19924;-75
2022/03/17 10:53:02;;;;;;;;;;;10.00;99.90;;;;;;5065530;28;20007;-75
2022/03/17 10:55:30;;;;;;;;;;;10.00;99.90;;;;;;5065053;28;20055;-74
2022/03/17 10:58:14;;;;;;;;;;;10.10;99.90;;;;;;5055058;28;20014;-74
2022/03/17 11:00:50;;;;;;;;;;;10.30;99.90;;;;;;5072776;28;19946;-74
2022/03/17 11:03:16;;;;;;;;;;;10.50;99.90;;;;;;5052630;28;19969;-74
2022/03/17 11:05:42;;;;;;;;;;;10.70;99.90;;;;;;5072623;28;20050;-75
2022/03/17 11:08:09;;;;;;;;;;;10.80;99.90;;;;;;5072845;28;19956;-74
2022/03/17 11:10:35;;;;;;;;;;;10.80;99.90;;;;;;5051640;28;20011;-74
2022/03/17 11:13:09;;;;;;;;;;;10.70;99.90;;;;;;5059970;28;20027;-74
2022/03/17 11:15:36;;;;;;;;;;;10.70;99.90;;;;;;5057077;28;20011;-74
2022/03/17 11:18:04;;;;;;;;;;;10.80;99.90;;;;;;5041453;28;20394;-74
2022/03/17 11:20:29;;;;;;;;;;;10.70;99.90;;;;;;5072931;28;19921;-74
2022/03/17 11:23:05;;;;;;;;;;;10.80;99.90;;;;;;5072986;28;19928;-74
2022/03/17 11:25:34;;;;;;;;;;;11.20;99.90;;;;;;5072675;28;19931;-74
2022/03/17 11:28:01;;;;;;;;;;;11.40;99.90;;;;;;5053016;28;19928;-75
2022/03/17 11:30:31;;;;;;;;;;;11.60;99.90;;;;;;5056599;28;20267;-74
2022/03/17 11:32:58;;;;;;;;;;;12.40;99.90;;;;;;5044498;28;19920;-75
2022/03/17 11:35:29;;;;;;;;;;;12.40;99.90;;;;;;5052527;28;20372;-75
2022/03/17 11:38:13;;;;;;;;;;;12.30;99.90;;;;;;5037613;28;19921;-74
2022/03/17 11:40:58;;;;;;;;;;;12.30;99.90;;;;;;5055596;28;19924;-74
2022/03/17 11:43:24;;;;;;;;;;;12.20;99.90;;;;;;5040709;28;19921;-74
2022/03/17 11:46:08;;;;;;;;;;;12.40;99.90;;;;;;5051755;28;19928;-74
2022/03/17 11:48:36;;;;;;;;;;;12.10;99.90;;;;;;5060134;28;20363;-75
2022/03/17 11:51:05;;;;;;;;;;;12.10;99.90;;;;;;5069790;28;19925;-74
2022/03/17 11:53:37;;;;;;;;;;;12.20;99.90;;;;;;5070227;28;19924;-74
2022/03/17 11:56:07;;;;;;;;;;;12.40;99.90;;;;;;5053243;28;20003;-73
2022/03/17 11:58:42;;;;;;;;;;;12.40;99.90;;;;;;5017037;28;19996;-74
2022/03/17 12:01:25;;;;;;;;;;;12.40;99.90;;;;;;5059041;28;19985;-73
2022/03/17 12:03:53;;;;;;;;;;;12.50;99.90;;;;;;5041109;28;19962;-74
2022/03/17 12:06:19;;;;;;;;;;;12.40;99.90;;;;;;5068839;28;20338;-74
2022/03/17 12:08:51;;;;;;;;;;;12.20;99.90;;;;;;5062994;28;19928;-74
2022/03/17 12:11:22;;;;;;;;;;;12.10;99.90;;;;;;5051411;28;19972;-74
2022/03/17 12:14:17;;;;;;;;;;;12.10;99.90;;;;;;5069540;28;19925;-75
2022/03/17 12:16:49;;;;;;;;;;;11.90;99.90;;;;;;5019732;28;20065;-74
2022/03/17 12:19:33;;;;;;;;;;;11.70;99.90;;;;;;5051162;28;19933;-74
2022/03/17 12:21:58;;;;;;;;;;;11.70;99.90;;;;;;5051684;28;19974;-74
2022/03/17 12:24:33;;;;;;;;;;;12.00;99.90;;;;;;5052148;28;20332;-74
2022/03/17 12:27:04;;;;;;;;;;;12.00;99.90;;;;;;5073392;28;20155;-73
2022/03/17 12:29:31;;;;;;;;;;;11.80;99.90;;;;;;5044545;28;19920;-74
2022/03/17 12:32:02;;;;;;;;;;;11.70;99.90;;;;;;5070523;28;19927;-73
2022/03/17 12:34:27;;;;;;;;;;;11.80;99.90;;;;;;5023599;28;19928;-73
2022/03/17 12:36:53;;;;;;;;;;;12.10;99.90;;;;;;5057763;28;20367;-73
2022/03/17 12:39:25;;;;;;;;;;;12.20;99.90;;;;;;5055557;28;19927;-74
2022/03/17 12:41:51;;;;;;;;;;;12.40;99.90;;;;;;5054818;28;19924;-73
2022/03/17 12:44:24;;;;;;;;;;;12.30;99.90;;;;;;5074838;28;19920;-73
2022/03/17 12:46:50;;;;;;;;;;;12.10;99.90;;;;;;5075171;28;20394;-73
2022/03/17 12:49:17;;;;;;;;;;;11.90;99.90;;;;;;5059081;28;20396;-74
2022/03/17 12:51:42;;;;;;;;;;;11.80;99.90;;;;;;5056781;28;20403;-73
2022/03/17 12:54:08;;;;;;;;;;;11.80;99.90;;;;;;5064635;28;19920;-72
2022/03/17 12:56:53;;;;;;;;;;;11.80;99.90;;;;;;5054956;28;19920;-73
2022/03/17 12:59:19;;;;;;;;;;;11.80;99.90;;;;;;5063018;28;20352;-73
2022/03/17 13:01:45;;;;;;;;;;;11.80;99.90;;;;;;5060127;28;19924;-73
2022/03/17 13:04:10;;;;;;;;;;;12.00;99.90;;;;;;5036575;28;19920;-72
2022/03/17 13:06:54;;;;;;;;;;;12.00;99.90;;;;;;5054675;28;19924;-73
2022/03/17 13:09:29;;;;;;;;;;;12.00;99.90;;;;;;5058462;28;19943;-74
2022/03/17 13:15:12;;;;;;;;;;;12.30;99.90;;;;;;5067943;28;20026;-74
2022/03/17 13:17:39;;;;;;;;;;;12.30;99.90;;;;;;5050997;28;20002;-73
2022/03/17 13:20:23;;;;;;;;;;;12.50;99.90;;;;;;5070620;28;19973;-73
2022/03/17 13:23:05;;;;;;;;;;;12.40;99.90;;;;;;5063978;28;19920;-74
2022/03/17 13:25:32;;;;;;;;;;;12.50;99.90;;;;;;5074312;28;20615;-74
2022/03/17 13:28:02;;;;;;;;;;;12.30;98.80;;;;;;5079874;28;20319;-73
2022/03/17 13:30:32;;;;;;;;;;;12.20;99.90;;;;;;5064995;28;19927;-73
2022/03/17 13:33:05;;;;;;;;;;;12.30;99.90;;;;;;5054623;28;20101;-73
2022/03/17 13:35:33;;;;;;;;;;;12.30;98.00;;;;;;5019717;28;19928;-73
2022/03/17 13:38:09;;;;;;;;;;;12.40;98.20;;;;;;5065520;28;19947;-73
2022/03/17 13:40:40;;;;;;;;;;;12.40;96.30;;;;;;5068303;28;20010;-73
2022/03/17 13:43:06;;;;;;;;;;;12.40;97.30;;;;;;5072564;28;20272;-73
2022/03/17 13:45:33;;;;;;;;;;;12.40;98.40;;;;;;5076200;28;19966;-73
2022/03/17 13:48:00;;;;;;;;;;;12.40;96.50;;;;;;5075863;28;20009;-73
2022/03/17 13:50:27;;;;;;;;;;;12.30;93.70;;;;;;5093583;28;19920;-73
2022/03/17 13:53:06;;;;;;;;;;;12.30;95.10;;;;;;5071529;28;19916;-74
2022/03/17 13:55:33;;;;;;;;;;;12.40;97.00;;;;;;5036822;28;20026;-73
2022/03/17 13:58:11;;;;;;;;;;;12.30;93.90;;;;;;5068184;28;19921;-72
2022/03/17 14:00:37;;;;;;;;;;;12.20;94.80;;;;;;5056252;28;19984;-73
2022/03/17 14:03:17;;;;;;;;;;;12.20;94.20;;;;;;5035979;28;20018;-73
2022/03/17 14:05:59;;;;;;;;;;;12.20;95.20;;;;;;5054659;28;20287;-73
2022/03/17 14:08:24;;;;;;;;;;;12.20;94.50;;;;;;5053848;28;19924;-73
2022/03/17 14:10:50;;;;;;;;;;;12.30;95.40;;;;;;5035436;28;20401;-73
2022/03/17 14:13:16;;;;;;;;;;;12.30;93.60;;;;;;5053536;28;19924;-73
2022/03/17 14:15:42;;;;;;;;;;;12.30;91.60;;;;;;5036083;28;19921;-73
2022/03/17 14:18:07;;;;;;;;;;;12.30;92.40;;;;;;5053064;28;19921;-74
2022/03/17 14:20:33;;;;;;;;;;;12.20;91.30;;;;;;5022027;28;19921;-73
2022/03/17 14:25:42;;;;;;;;;;;12.30;92.60;;;;;;5055734;28;19927;-73
2022/03/17 14:28:08;;;;;;;;;;;12.30;90.90;;;;;;5053348;28;19920;-73
2022/03/17 14:30:33;;;;;;;;;;;12.20;86.70;;;;;;5002376;28;19921;-73
2022/03/17 14:32:59;;;;;;;;;;;12.30;89.40;;;;;;5053959;28;19968;-73
2022/03/17 14:35:24;;;;;;;;;;;12.40;90.90;;;;;;5063242;28;19931;-73
2022/03/17 14:37:50;;;;;;;;;;;12.40;92.10;;;;;;5042089;28;19994;-73
2022/03/17 14:40:15;;;;;;;;;;;12.30;89.00;;;;;;5053991;28;19924;-73
2022/03/17 14:42:41;;;;;;;;;;;12.40;86.70;;;;;;5050904;28;19924;-72
2022/03/17 14:45:07;;;;;;;;;;;12.30;85.10;;;;;;5018509;28;20382;-73